sensor_id;sensor_type;location;lat;lon;timestamp;P1;durP1;ratioP1;P2;durP2;ratioP2
49071;SDS011;52656;52.610;10.236;2023-11-18T00:01:43;16.20;;;10.30;;
49071;SDS011;52656;52.610;10.236;2023-11-18T00:04:08;15.43;;;9.85;;
49071;SDS011;52656;52.610;10.236;2023-11-18T00:06:40;14.10;;;9.52;;
49071;SDS011;52656;52.610;10.236;2023-11-18T00:09:09;16.90;;;9.50;;
49071;SDS011;52656;52.610;10.236;2023-11-18T00:11:39;15.23;;;10.02;;
49071;SDS011;52656;52.610;10.236;2023-11-18T00:14:08;19.80;;;10.43;;
49071;SDS011;52656;52.610;10.236;2023-11-18T00:16:36;14.82;;;9.50;;
49071;SDS011;52656;52.610;10.236;2023-11-18T00:19:01;15.10;;;9.80;;
49071;SDS011;52656;52.610;10.236;2023-11-18T00:21:29;14.88;;;9.15;;
49071;SDS011;52656;52.610;10.236;2023-11-18T00:23:55;16.50;;;9.67;;
49071;SDS011;52656;52.610;10.236;2023-11-18T00:26:21;13.57;;;8.73;;
49071;SDS011;52656;52.610;10.236;2023-11-18T00:28:46;13.43;;;8.57;;
49071;SDS011;52656;52.610;10.236;2023-11-18T00:33:38;15.05;;;8.90;;
49071;SDS011;52656;52.610;10.236;2023-11-18T00:38:29;14.95;;;8.57;;
49071;SDS011;52656;52.610;10.236;2023-11-18T00:40:55;14.07;;;8.40;;
49071;SDS011;52656;52.610;10.236;2023-11-18T00:43:20;14.07;;;8.30;;
49071;SDS011;52656;52.610;10.236;2023-11-18T00:45:47;11.10;;;8.23;;
49071;SDS011;52656;52.610;10.236;2023-11-18T00:48:13;11.75;;;7.70;;
49071;SDS011;52656;52.610;10.236;2023-11-18T00:50:39;13.95;;;7.82;;
49071;SDS011;52656;52.610;10.236;2023-11-18T00:53:05;14.88;;;8.70;;
49071;SDS011;52656;52.610;10.236;2023-11-18T00:55:30;15.65;;;9.82;;
49071;SDS011;52656;52.610;10.236;2023-11-18T01:00:22;14.13;;;8.88;;
49071;SDS011;52656;52.610;10.236;2023-11-18T01:02:48;17.80;;;8.68;;
49071;SDS011;52656;52.610;10.236;2023-11-18T01:05:14;12.45;;;8.43;;
49071;SDS011;52656;52.610;10.236;2023-11-18T01:07:40;13.95;;;9.05;;
49071;SDS011;52656;52.610;10.236;2023-11-18T01:12:32;12.43;;;7.72;;
49071;SDS011;52656;52.610;10.236;2023-11-18T01:14:57;13.80;;;8.60;;
49071;SDS011;52656;52.610;10.236;2023-11-18T01:17:23;12.88;;;9.13;;
49071;SDS011;52656;52.610;10.236;2023-11-18T01:19:48;12.70;;;8.35;;
49071;SDS011;52656;52.610;10.236;2023-11-18T01:22:14;12.68;;;7.80;;
49071;SDS011;52656;52.610;10.236;2023-11-18T01:24:40;11.73;;;7.35;;
49071;SDS011;52656;52.610;10.236;2023-11-18T01:27:05;11.40;;;6.85;;
49071;SDS011;52656;52.610;10.236;2023-11-18T01:29:34;10.60;;;6.55;;
49071;SDS011;52656;52.610;10.236;2023-11-18T01:32:04;11.35;;;6.85;;
49071;SDS011;52656;52.610;10.236;2023-11-18T01:34:34;10.30;;;5.45;;
49071;SDS011;52656;52.610;10.236;2023-11-18T01:39:25;12.50;;;6.22;;
49071;SDS011;52656;52.610;10.236;2023-11-18T01:41:52;9.82;;;5.60;;
49071;SDS011;52656;52.610;10.236;2023-11-18T01:44:17;9.47;;;6.70;;
49071;SDS011;52656;52.610;10.236;2023-11-18T01:46:44;8.45;;;4.95;;
49071;SDS011;52656;52.610;10.236;2023-11-18T01:49:10;7.65;;;5.07;;
49071;SDS011;52656;52.610;10.236;2023-11-18T01:51:38;7.70;;;4.85;;
49071;SDS011;52656;52.610;10.236;2023-11-18T01:54:06;8.13;;;4.95;;
49071;SDS011;52656;52.610;10.236;2023-11-18T01:56:34;8.43;;;5.15;;
49071;SDS011;52656;52.610;10.236;2023-11-18T01:58:59;9.52;;;4.88;;
49071;SDS011;52656;52.610;10.236;2023-11-18T02:01:28;8.57;;;5.28;;
49071;SDS011;52656;52.610;10.236;2023-11-18T02:03:55;10.00;;;5.22;;
49071;SDS011;52656;52.610;10.236;2023-11-18T02:06:20;9.80;;;5.07;;
49071;SDS011;52656;52.610;10.236;2023-11-18T02:08:46;8.52;;;4.80;;
49071;SDS011;52656;52.610;10.236;2023-11-18T02:14:00;10.55;;;5.38;;
49071;SDS011;52656;52.610;10.236;2023-11-18T02:16:30;9.57;;;5.47;;
49071;SDS011;52656;52.610;10.236;2023-11-18T02:18:57;10.77;;;5.22;;
49071;SDS011;52656;52.610;10.236;2023-11-18T02:21:24;11.73;;;5.80;;
49071;SDS011;52656;52.610;10.236;2023-11-18T02:23:51;8.23;;;5.32;;
49071;SDS011;52656;52.610;10.236;2023-11-18T02:28:52;11.77;;;6.18;;
49071;SDS011;52656;52.610;10.236;2023-11-18T02:31:27;9.88;;;4.95;;
49071;SDS011;52656;52.610;10.236;2023-11-18T02:34:05;8.13;;;5.15;;
49071;SDS011;52656;52.610;10.236;2023-11-18T02:36:42;10.00;;;5.70;;
49071;SDS011;52656;52.610;10.236;2023-11-18T02:39:32;8.57;;;5.22;;
49071;SDS011;52656;52.610;10.236;2023-11-18T02:42:01;10.45;;;5.03;;
49071;SDS011;52656;52.610;10.236;2023-11-18T02:44:28;8.70;;;5.15;;
49071;SDS011;52656;52.610;10.236;2023-11-18T02:46:57;7.05;;;4.95;;
49071;SDS011;52656;52.610;10.236;2023-11-18T02:49:23;8.15;;;5.20;;
49071;SDS011;52656;52.610;10.236;2023-11-18T02:51:48;9.07;;;5.40;;
49071;SDS011;52656;52.610;10.236;2023-11-18T02:54:13;9.30;;;4.95;;
49071;SDS011;52656;52.610;10.236;2023-11-18T02:56:41;11.02;;;5.70;;
49071;SDS011;52656;52.610;10.236;2023-11-18T02:59:06;7.80;;;5.57;;
49071;SDS011;52656;52.610;10.236;2023-11-18T03:01:32;7.72;;;4.80;;
49071;SDS011;52656;52.610;10.236;2023-11-18T03:03:59;8.90;;;5.32;;
49071;SDS011;52656;52.610;10.236;2023-11-18T03:06:24;7.85;;;5.50;;
49071;SDS011;52656;52.610;10.236;2023-11-18T03:08:50;8.98;;;5.63;;
49071;SDS011;52656;52.610;10.236;2023-11-18T03:11:16;9.00;;;5.47;;
49071;SDS011;52656;52.610;10.236;2023-11-18T03:13:42;11.00;;;5.50;;
49071;SDS011;52656;52.610;10.236;2023-11-18T03:16:08;9.60;;;5.53;;
49071;SDS011;52656;52.610;10.236;2023-11-18T03:18:40;10.52;;;5.43;;
49071;SDS011;52656;52.610;10.236;2023-11-18T03:21:13;7.60;;;4.93;;
49071;SDS011;52656;52.610;10.236;2023-11-18T03:23:39;11.52;;;6.13;;
49071;SDS011;52656;52.610;10.236;2023-11-18T03:26:06;11.60;;;5.80;;
49071;SDS011;52656;52.610;10.236;2023-11-18T03:28:35;13.65;;;6.35;;
49071;SDS011;52656;52.610;10.236;2023-11-18T03:33:27;10.18;;;5.97;;
49071;SDS011;52656;52.610;10.236;2023-11-18T03:35:52;12.40;;;6.93;;
49071;SDS011;52656;52.610;10.236;2023-11-18T03:38:17;10.27;;;6.23;;
49071;SDS011;52656;52.610;10.236;2023-11-18T03:40:43;12.70;;;6.97;;
49071;SDS011;52656;52.610;10.236;2023-11-18T03:43:10;11.93;;;6.47;;
49071;SDS011;52656;52.610;10.236;2023-11-18T03:48:03;36.13;;;10.55;;
49071;SDS011;52656;52.610;10.236;2023-11-18T03:50:28;16.55;;;7.80;;
49071;SDS011;52656;52.610;10.236;2023-11-18T03:52:54;24.67;;;9.15;;
49071;SDS011;52656;52.610;10.236;2023-11-18T03:55:19;30.95;;;9.43;;
49071;SDS011;52656;52.610;10.236;2023-11-18T03:57:44;16.48;;;8.13;;
49071;SDS011;52656;52.610;10.236;2023-11-18T04:00:10;44.58;;;11.60;;
49071;SDS011;52656;52.610;10.236;2023-11-18T04:02:36;79.07;;;13.02;;
49071;SDS011;52656;52.610;10.236;2023-11-18T04:05:02;30.83;;;10.60;;
49071;SDS011;52656;52.610;10.236;2023-11-18T04:07:29;41.55;;;11.75;;
49071;SDS011;52656;52.610;10.236;2023-11-18T04:09:54;54.23;;;11.70;;
49071;SDS011;52656;52.610;10.236;2023-11-18T04:12:19;63.87;;;13.83;;
49071;SDS011;52656;52.610;10.236;2023-11-18T04:14:45;105.82;;;18.60;;
49071;SDS011;52656;52.610;10.236;2023-11-18T04:17:10;32.92;;;11.07;;
49071;SDS011;52656;52.610;10.236;2023-11-18T04:19:35;49.60;;;13.48;;
49071;SDS011;52656;52.610;10.236;2023-11-18T04:22:02;43.88;;;12.98;;
49071;SDS011;52656;52.610;10.236;2023-11-18T04:24:27;55.30;;;14.40;;
49071;SDS011;52656;52.610;10.236;2023-11-18T04:26:52;74.57;;;18.40;;
49071;SDS011;52656;52.610;10.236;2023-11-18T04:29:20;57.28;;;17.70;;
49071;SDS011;52656;52.610;10.236;2023-11-18T04:31:46;59.92;;;20.10;;
49071;SDS011;52656;52.610;10.236;2023-11-18T04:34:11;41.10;;;16.98;;
49071;SDS011;52656;52.610;10.236;2023-11-18T04:36:40;48.38;;;18.65;;
49071;SDS011;52656;52.610;10.236;2023-11-18T04:39:06;46.35;;;19.77;;
49071;SDS011;52656;52.610;10.236;2023-11-18T04:41:31;45.40;;;17.73;;
49071;SDS011;52656;52.610;10.236;2023-11-18T04:43:57;37.30;;;16.60;;
49071;SDS011;52656;52.610;10.236;2023-11-18T04:46:22;28.83;;;13.57;;
49071;SDS011;52656;52.610;10.236;2023-11-18T04:48:47;37.05;;;14.80;;
49071;SDS011;52656;52.610;10.236;2023-11-18T04:51:13;32.77;;;13.77;;
49071;SDS011;52656;52.610;10.236;2023-11-18T04:53:38;27.02;;;12.43;;
49071;SDS011;52656;52.610;10.236;2023-11-18T04:56:04;25.73;;;11.80;;
49071;SDS011;52656;52.610;10.236;2023-11-18T04:58:30;25.45;;;10.90;;
49071;SDS011;52656;52.610;10.236;2023-11-18T05:00:56;22.08;;;10.52;;
49071;SDS011;52656;52.610;10.236;2023-11-18T05:03:21;23.85;;;11.40;;
49071;SDS011;52656;52.610;10.236;2023-11-18T05:05:48;20.48;;;10.73;;
49071;SDS011;52656;52.610;10.236;2023-11-18T05:08:20;20.10;;;9.77;;
49071;SDS011;52656;52.610;10.236;2023-11-18T05:10:49;20.67;;;9.60;;
49071;SDS011;52656;52.610;10.236;2023-11-18T05:13:15;20.38;;;9.32;;
49071;SDS011;52656;52.610;10.236;2023-11-18T05:15:44;16.10;;;8.95;;
49071;SDS011;52656;52.610;10.236;2023-11-18T05:18:11;22.17;;;9.73;;
49071;SDS011;52656;52.610;10.236;2023-11-18T05:20:39;20.30;;;9.90;;
49071;SDS011;52656;52.610;10.236;2023-11-18T05:25:31;19.92;;;10.10;;
49071;SDS011;52656;52.610;10.236;2023-11-18T05:27:58;23.33;;;11.48;;
49071;SDS011;52656;52.610;10.236;2023-11-18T05:30:24;22.63;;;10.23;;
49071;SDS011;52656;52.610;10.236;2023-11-18T05:32:49;18.30;;;10.15;;
49071;SDS011;52656;52.610;10.236;2023-11-18T05:35:14;24.30;;;10.97;;
49071;SDS011;52656;52.610;10.236;2023-11-18T05:37:40;19.00;;;10.38;;
49071;SDS011;52656;52.610;10.236;2023-11-18T05:40:06;17.80;;;10.23;;
49071;SDS011;52656;52.610;10.236;2023-11-18T05:42:33;18.55;;;9.27;;
49071;SDS011;52656;52.610;10.236;2023-11-18T05:45:01;20.38;;;10.13;;
49071;SDS011;52656;52.610;10.236;2023-11-18T05:47:27;15.35;;;8.35;;
49071;SDS011;52656;52.610;10.236;2023-11-18T05:49:53;16.35;;;8.77;;
49071;SDS011;52656;52.610;10.236;2023-11-18T05:52:19;16.00;;;8.95;;
49071;SDS011;52656;52.610;10.236;2023-11-18T05:54:45;15.93;;;8.30;;
49071;SDS011;52656;52.610;10.236;2023-11-18T05:57:12;16.52;;;8.55;;
49071;SDS011;52656;52.610;10.236;2023-11-18T05:59:38;17.08;;;8.57;;
49071;SDS011;52656;52.610;10.236;2023-11-18T06:02:03;23.83;;;10.70;;
49071;SDS011;52656;52.610;10.236;2023-11-18T06:04:29;23.42;;;10.25;;
49071;SDS011;52656;52.610;10.236;2023-11-18T06:06:55;16.60;;;9.63;;
49071;SDS011;52656;52.610;10.236;2023-11-18T06:09:21;19.83;;;10.63;;
49071;SDS011;52656;52.610;10.236;2023-11-18T06:11:50;21.60;;;11.63;;
49071;SDS011;52656;52.610;10.236;2023-11-18T06:14:16;19.75;;;10.55;;
49071;SDS011;52656;52.610;10.236;2023-11-18T06:16:42;18.75;;;11.15;;
49071;SDS011;52656;52.610;10.236;2023-11-18T06:19:07;23.05;;;12.80;;
49071;SDS011;52656;52.610;10.236;2023-11-18T06:21:33;26.55;;;13.77;;
49071;SDS011;52656;52.610;10.236;2023-11-18T06:23:59;22.83;;;13.27;;
49071;SDS011;52656;52.610;10.236;2023-11-18T06:28:52;32.70;;;18.60;;
49071;SDS011;52656;52.610;10.236;2023-11-18T06:31:18;32.35;;;16.67;;
49071;SDS011;52656;52.610;10.236;2023-11-18T06:33:45;26.88;;;15.85;;
49071;SDS011;52656;52.610;10.236;2023-11-18T06:38:47;30.02;;;16.33;;
49071;SDS011;52656;52.610;10.236;2023-11-18T06:41:15;28.65;;;14.13;;
49071;SDS011;52656;52.610;10.236;2023-11-18T06:43:42;22.75;;;12.23;;
49071;SDS011;52656;52.610;10.236;2023-11-18T06:46:22;21.45;;;12.35;;
49071;SDS011;52656;52.610;10.236;2023-11-18T06:48:54;23.85;;;13.15;;
49071;SDS011;52656;52.610;10.236;2023-11-18T06:51:20;26.70;;;14.98;;
49071;SDS011;52656;52.610;10.236;2023-11-18T06:53:53;26.42;;;13.57;;
49071;SDS011;52656;52.610;10.236;2023-11-18T06:56:28;23.85;;;12.48;;
49071;SDS011;52656;52.610;10.236;2023-11-18T06:58:53;25.58;;;11.25;;
49071;SDS011;52656;52.610;10.236;2023-11-18T07:01:19;23.80;;;12.02;;
49071;SDS011;52656;52.610;10.236;2023-11-18T07:03:45;19.80;;;11.27;;
49071;SDS011;52656;52.610;10.236;2023-11-18T07:06:17;19.40;;;11.40;;
49071;SDS011;52656;52.610;10.236;2023-11-18T07:08:47;19.42;;;11.57;;
49071;SDS011;52656;52.610;10.236;2023-11-18T07:11:16;18.55;;;10.27;;
49071;SDS011;52656;52.610;10.236;2023-11-18T07:13:42;26.73;;;11.05;;
49071;SDS011;52656;52.610;10.236;2023-11-18T07:18:34;61.33;;;12.63;;
49071;SDS011;52656;52.610;10.236;2023-11-18T07:21:05;59.25;;;12.73;;
49071;SDS011;52656;52.610;10.236;2023-11-18T07:23:31;58.42;;;13.55;;
49071;SDS011;52656;52.610;10.236;2023-11-18T07:25:57;33.22;;;12.07;;
49071;SDS011;52656;52.610;10.236;2023-11-18T07:28:23;77.82;;;17.35;;
49071;SDS011;52656;52.610;10.236;2023-11-18T07:30:48;48.80;;;14.82;;
49071;SDS011;52656;52.610;10.236;2023-11-18T07:33:14;111.78;;;38.17;;
49071;SDS011;52656;52.610;10.236;2023-11-18T07:35:40;70.40;;;25.13;;
49071;SDS011;52656;52.610;10.236;2023-11-18T07:38:06;57.60;;;20.42;;
49071;SDS011;52656;52.610;10.236;2023-11-18T07:40:32;55.03;;;16.23;;
49071;SDS011;52656;52.610;10.236;2023-11-18T07:42:58;43.60;;;11.70;;
49071;SDS011;52656;52.610;10.236;2023-11-18T07:45:27;65.55;;;17.70;;
49071;SDS011;52656;52.610;10.236;2023-11-18T07:47:53;48.03;;;11.68;;
49071;SDS011;52656;52.610;10.236;2023-11-18T07:50:22;25.23;;;15.88;;
49071;SDS011;52656;52.610;10.236;2023-11-18T07:52:47;20.90;;;11.73;;
49071;SDS011;52656;52.610;10.236;2023-11-18T07:55:14;38.55;;;12.52;;
49071;SDS011;52656;52.610;10.236;2023-11-18T07:57:39;25.27;;;10.98;;
49071;SDS011;52656;52.610;10.236;2023-11-18T08:00:06;28.70;;;12.00;;
49071;SDS011;52656;52.610;10.236;2023-11-18T08:02:34;48.58;;;14.55;;
49071;SDS011;52656;52.610;10.236;2023-11-18T08:05:03;21.92;;;10.32;;
49071;SDS011;52656;52.610;10.236;2023-11-18T08:07:32;28.85;;;9.52;;
49071;SDS011;52656;52.610;10.236;2023-11-18T08:09:58;27.20;;;9.48;;
49071;SDS011;52656;52.610;10.236;2023-11-18T08:12:24;14.77;;;8.87;;
49071;SDS011;52656;52.610;10.236;2023-11-18T08:14:50;27.73;;;12.20;;
49071;SDS011;52656;52.610;10.236;2023-11-18T08:17:15;19.63;;;9.03;;
49071;SDS011;52656;52.610;10.236;2023-11-18T08:19:40;25.93;;;10.67;;
49071;SDS011;52656;52.610;10.236;2023-11-18T08:22:06;42.10;;;15.30;;
49071;SDS011;52656;52.610;10.236;2023-11-18T08:24:34;32.63;;;12.40;;
49071;SDS011;52656;52.610;10.236;2023-11-18T08:26:59;46.93;;;11.77;;
49071;SDS011;52656;52.610;10.236;2023-11-18T08:29:25;39.13;;;11.70;;
49071;SDS011;52656;52.610;10.236;2023-11-18T08:31:56;32.30;;;10.73;;
49071;SDS011;52656;52.610;10.236;2023-11-18T08:34:21;44.28;;;13.73;;
49071;SDS011;52656;52.610;10.236;2023-11-18T08:36:46;25.50;;;11.45;;
49071;SDS011;52656;52.610;10.236;2023-11-18T08:39:12;79.33;;;12.63;;
49071;SDS011;52656;52.610;10.236;2023-11-18T08:41:38;45.90;;;10.55;;
49071;SDS011;52656;52.610;10.236;2023-11-18T08:44:04;57.28;;;12.93;;
49071;SDS011;52656;52.610;10.236;2023-11-18T08:46:30;87.57;;;14.77;;
49071;SDS011;52656;52.610;10.236;2023-11-18T08:48:55;47.97;;;12.83;;
49071;SDS011;52656;52.610;10.236;2023-11-18T08:51:20;27.55;;;10.98;;
49071;SDS011;52656;52.610;10.236;2023-11-18T08:53:46;25.15;;;10.65;;
49071;SDS011;52656;52.610;10.236;2023-11-18T08:56:12;17.02;;;8.80;;
49071;SDS011;52656;52.610;10.236;2023-11-18T08:58:43;11.40;;;6.30;;
49071;SDS011;52656;52.610;10.236;2023-11-18T09:01:14;14.85;;;8.70;;
49071;SDS011;52656;52.610;10.236;2023-11-18T09:03:40;11.98;;;7.35;;
49071;SDS011;52656;52.610;10.236;2023-11-18T09:06:13;12.02;;;6.75;;
49071;SDS011;52656;52.610;10.236;2023-11-18T09:08:43;13.60;;;7.63;;
49071;SDS011;52656;52.610;10.236;2023-11-18T09:11:17;12.52;;;7.50;;
49071;SDS011;52656;52.610;10.236;2023-11-18T09:13:45;12.73;;;7.97;;
49071;SDS011;52656;52.610;10.236;2023-11-18T09:16:14;12.38;;;7.13;;
49071;SDS011;52656;52.610;10.236;2023-11-18T09:21:08;13.88;;;6.68;;
49071;SDS011;52656;52.610;10.236;2023-11-18T09:23:39;14.25;;;8.63;;
49071;SDS011;52656;52.610;10.236;2023-11-18T09:26:05;14.45;;;8.57;;
49071;SDS011;52656;52.610;10.236;2023-11-18T09:28:33;13.70;;;8.77;;
49071;SDS011;52656;52.610;10.236;2023-11-18T09:31:00;15.05;;;8.18;;
49071;SDS011;52656;52.610;10.236;2023-11-18T09:33:28;15.57;;;8.48;;
49071;SDS011;52656;52.610;10.236;2023-11-18T09:38:29;16.73;;;9.23;;
49071;SDS011;52656;52.610;10.236;2023-11-18T09:40:56;15.23;;;9.60;;
49071;SDS011;52656;52.610;10.236;2023-11-18T09:43:23;16.45;;;9.52;;
49071;SDS011;52656;52.610;10.236;2023-11-18T09:45:50;18.02;;;10.38;;
49071;SDS011;52656;52.610;10.236;2023-11-18T09:48:20;19.90;;;10.57;;
49071;SDS011;52656;52.610;10.236;2023-11-18T09:50:50;16.92;;;9.50;;
49071;SDS011;52656;52.610;10.236;2023-11-18T09:53:16;18.02;;;9.48;;
49071;SDS011;52656;52.610;10.236;2023-11-18T09:55:52;20.17;;;10.55;;
49071;SDS011;52656;52.610;10.236;2023-11-18T09:58:25;20.48;;;10.73;;
49071;SDS011;52656;52.610;10.236;2023-11-18T10:00:58;30.20;;;15.75;;
49071;SDS011;52656;52.610;10.236;2023-11-18T10:03:27;30.13;;;16.77;;
49071;SDS011;52656;52.610;10.236;2023-11-18T10:05:54;29.23;;;17.52;;
49071;SDS011;52656;52.610;10.236;2023-11-18T10:08:21;22.25;;;14.20;;
49071;SDS011;52656;52.610;10.236;2023-11-18T10:10:51;23.63;;;15.02;;
49071;SDS011;52656;52.610;10.236;2023-11-18T10:13:29;27.10;;;15.00;;
49071;SDS011;52656;52.610;10.236;2023-11-18T10:15:55;29.40;;;16.60;;
49071;SDS011;52656;52.610;10.236;2023-11-18T10:18:22;22.42;;;12.40;;
49071;SDS011;52656;52.610;10.236;2023-11-18T10:20:49;24.92;;;12.43;;
49071;SDS011;52656;52.610;10.236;2023-11-18T10:23:18;31.08;;;17.83;;
49071;SDS011;52656;52.610;10.236;2023-11-18T10:30:59;33.22;;;18.05;;
49071;SDS011;52656;52.610;10.236;2023-11-18T10:33:32;31.73;;;18.65;;
49071;SDS011;52656;52.610;10.236;2023-11-18T10:36:01;35.83;;;19.85;;
49071;SDS011;52656;52.610;10.236;2023-11-18T10:38:31;24.40;;;13.23;;
49071;SDS011;52656;52.610;10.236;2023-11-18T10:40:59;33.88;;;17.15;;
49071;SDS011;52656;52.610;10.236;2023-11-18T10:43:27;29.25;;;16.77;;
49071;SDS011;52656;52.610;10.236;2023-11-18T10:48:49;29.60;;;16.63;;
49071;SDS011;52656;52.610;10.236;2023-11-18T10:51:16;31.17;;;18.42;;
49071;SDS011;52656;52.610;10.236;2023-11-18T10:53:49;34.85;;;19.73;;
49071;SDS011;52656;52.610;10.236;2023-11-18T10:56:23;37.25;;;22.02;;
49071;SDS011;52656;52.610;10.236;2023-11-18T10:58:53;33.95;;;20.55;;
49071;SDS011;52656;52.610;10.236;2023-11-18T11:03:54;34.42;;;20.08;;
49071;SDS011;52656;52.610;10.236;2023-11-18T11:06:21;36.05;;;21.10;;
49071;SDS011;52656;52.610;10.236;2023-11-18T11:08:48;35.08;;;15.70;;
49071;SDS011;52656;52.610;10.236;2023-11-18T11:11:16;33.00;;;18.00;;
49071;SDS011;52656;52.610;10.236;2023-11-18T11:13:46;39.42;;;21.30;;
49071;SDS011;52656;52.610;10.236;2023-11-18T11:16:14;37.83;;;21.23;;
49071;SDS011;52656;52.610;10.236;2023-11-18T11:18:44;32.13;;;17.83;;
49071;SDS011;52656;52.610;10.236;2023-11-18T11:21:19;36.38;;;21.15;;
49071;SDS011;52656;52.610;10.236;2023-11-18T11:23:57;39.15;;;21.50;;
49071;SDS011;52656;52.610;10.236;2023-11-18T11:32:11;37.85;;;19.20;;
49071;SDS011;52656;52.610;10.236;2023-11-18T11:34:48;35.35;;;19.08;;
49071;SDS011;52656;52.610;10.236;2023-11-18T11:37:19;40.65;;;23.60;;
49071;SDS011;52656;52.610;10.236;2023-11-18T11:42:12;42.13;;;23.15;;
49071;SDS011;52656;52.610;10.236;2023-11-18T11:44:42;40.03;;;22.20;;
49071;SDS011;52656;52.610;10.236;2023-11-18T11:49:58;33.47;;;18.67;;
49071;SDS011;52656;52.610;10.236;2023-11-18T11:52:35;35.35;;;20.17;;
49071;SDS011;52656;52.610;10.236;2023-11-18T11:57:38;32.75;;;17.45;;
49071;SDS011;52656;52.610;10.236;2023-11-18T12:00:04;26.60;;;15.13;;
49071;SDS011;52656;52.610;10.236;2023-11-18T12:02:40;36.88;;;19.45;;
49071;SDS011;52656;52.610;10.236;2023-11-18T12:05:15;35.90;;;20.85;;
49071;SDS011;52656;52.610;10.236;2023-11-18T12:07:44;34.22;;;18.23;;
49071;SDS011;52656;52.610;10.236;2023-11-18T12:10:11;32.08;;;18.58;;
49071;SDS011;52656;52.610;10.236;2023-11-18T12:12:45;29.25;;;15.18;;
49071;SDS011;52656;52.610;10.236;2023-11-18T12:15:10;29.52;;;15.40;;
49071;SDS011;52656;52.610;10.236;2023-11-18T12:20:39;32.22;;;17.33;;
49071;SDS011;52656;52.610;10.236;2023-11-18T12:23:26;30.70;;;17.20;;
49071;SDS011;52656;52.610;10.236;2023-11-18T12:25:52;32.85;;;18.98;;
49071;SDS011;52656;52.610;10.236;2023-11-18T12:28:25;28.30;;;16.58;;
49071;SDS011;52656;52.610;10.236;2023-11-18T12:31:01;28.08;;;15.45;;
49071;SDS011;52656;52.610;10.236;2023-11-18T12:42:06;21.52;;;12.68;;
49071;SDS011;52656;52.610;10.236;2023-11-18T12:47:26;26.05;;;15.77;;
49071;SDS011;52656;52.610;10.236;2023-11-18T12:49:55;21.60;;;13.07;;
49071;SDS011;52656;52.610;10.236;2023-11-18T12:52:21;19.90;;;11.27;;
49071;SDS011;52656;52.610;10.236;2023-11-18T12:54:48;34.08;;;14.13;;
49071;SDS011;52656;52.610;10.236;2023-11-18T12:57:17;18.50;;;9.80;;
49071;SDS011;52656;52.610;10.236;2023-11-18T12:59:47;21.75;;;12.90;;
49071;SDS011;52656;52.610;10.236;2023-11-18T13:02:14;26.00;;;15.23;;
49071;SDS011;52656;52.610;10.236;2023-11-18T13:04:46;28.13;;;16.67;;
49071;SDS011;52656;52.610;10.236;2023-11-18T13:07:17;25.02;;;12.52;;
49071;SDS011;52656;52.610;10.236;2023-11-18T13:09:44;27.08;;;15.80;;
49071;SDS011;52656;52.610;10.236;2023-11-18T13:12:11;26.52;;;13.73;;
49071;SDS011;52656;52.610;10.236;2023-11-18T13:14:40;25.10;;;14.80;;
49071;SDS011;52656;52.610;10.236;2023-11-18T13:17:10;27.58;;;15.05;;
49071;SDS011;52656;52.610;10.236;2023-11-18T13:19:41;27.75;;;14.50;;
49071;SDS011;52656;52.610;10.236;2023-11-18T13:24:40;19.73;;;10.68;;
49071;SDS011;52656;52.610;10.236;2023-11-18T13:27:10;25.15;;;13.55;;
49071;SDS011;52656;52.610;10.236;2023-11-18T13:29:38;24.58;;;13.23;;
49071;SDS011;52656;52.610;10.236;2023-11-18T13:32:06;25.15;;;13.50;;
49071;SDS011;52656;52.610;10.236;2023-11-18T13:34:35;22.63;;;14.13;;
49071;SDS011;52656;52.610;10.236;2023-11-18T13:37:06;21.48;;;12.50;;
49071;SDS011;52656;52.610;10.236;2023-11-18T13:41:58;24.42;;;14.00;;
49071;SDS011;52656;52.610;10.236;2023-11-18T13:44:43;21.90;;;13.25;;
49071;SDS011;52656;52.610;10.236;2023-11-18T13:47:10;22.52;;;13.73;;
49071;SDS011;52656;52.610;10.236;2023-11-18T13:49:39;20.77;;;10.45;;
49071;SDS011;52656;52.610;10.236;2023-11-18T13:52:08;24.63;;;12.65;;
49071;SDS011;52656;52.610;10.236;2023-11-18T13:54:36;24.70;;;13.95;;
49071;SDS011;52656;52.610;10.236;2023-11-18T13:57:02;24.38;;;14.05;;
49071;SDS011;52656;52.610;10.236;2023-11-18T13:59:28;19.30;;;9.75;;
49071;SDS011;52656;52.610;10.236;2023-11-18T14:01:54;21.23;;;11.60;;
49071;SDS011;52656;52.610;10.236;2023-11-18T14:04:24;23.75;;;13.02;;
49071;SDS011;52656;52.610;10.236;2023-11-18T14:06:52;22.80;;;13.65;;
49071;SDS011;52656;52.610;10.236;2023-11-18T14:09:21;23.80;;;12.02;;
49071;SDS011;52656;52.610;10.236;2023-11-18T14:11:50;27.88;;;13.43;;
49071;SDS011;52656;52.610;10.236;2023-11-18T14:14:16;22.25;;;11.85;;
49071;SDS011;52656;52.610;10.236;2023-11-18T14:16:42;22.02;;;12.00;;
49071;SDS011;52656;52.610;10.236;2023-11-18T14:19:08;23.98;;;14.50;;
49071;SDS011;52656;52.610;10.236;2023-11-18T14:21:33;21.50;;;14.32;;
49071;SDS011;52656;52.610;10.236;2023-11-18T14:23:59;23.15;;;12.43;;
49071;SDS011;52656;52.610;10.236;2023-11-18T14:26:27;20.55;;;12.50;;
49071;SDS011;52656;52.610;10.236;2023-11-18T14:28:52;20.27;;;11.77;;
49071;SDS011;52656;52.610;10.236;2023-11-18T14:31:18;24.97;;;13.03;;
49071;SDS011;52656;52.610;10.236;2023-11-18T14:33:43;23.33;;;13.82;;
49071;SDS011;52656;52.610;10.236;2023-11-18T14:36:09;20.65;;;11.82;;
49071;SDS011;52656;52.610;10.236;2023-11-18T14:38:36;22.55;;;14.45;;
49071;SDS011;52656;52.610;10.236;2023-11-18T14:41:02;20.42;;;11.77;;
49071;SDS011;52656;52.610;10.236;2023-11-18T14:43:29;25.98;;;13.70;;
49071;SDS011;52656;52.610;10.236;2023-11-18T14:45:55;24.58;;;14.65;;
49071;SDS011;52656;52.610;10.236;2023-11-18T14:48:20;31.25;;;16.45;;
49071;SDS011;52656;52.610;10.236;2023-11-18T14:50:45;26.77;;;13.80;;
49071;SDS011;52656;52.610;10.236;2023-11-18T14:53:10;23.77;;;15.00;;
49071;SDS011;52656;52.610;10.236;2023-11-18T14:55:36;28.90;;;16.60;;
49071;SDS011;52656;52.610;10.236;2023-11-18T14:58:01;21.20;;;10.60;;
49071;SDS011;52656;52.610;10.236;2023-11-18T15:00:29;26.50;;;15.52;;
49071;SDS011;52656;52.610;10.236;2023-11-18T15:02:57;26.58;;;17.27;;
49071;SDS011;52656;52.610;10.236;2023-11-18T15:05:23;21.48;;;12.80;;
49071;SDS011;52656;52.610;10.236;2023-11-18T15:10:18;29.17;;;17.80;;
49071;SDS011;52656;52.610;10.236;2023-11-18T15:12:54;23.92;;;15.98;;
49071;SDS011;52656;52.610;10.236;2023-11-18T15:15:23;24.30;;;14.32;;
49071;SDS011;52656;52.610;10.236;2023-11-18T15:18:04;24.92;;;13.38;;
49071;SDS011;52656;52.610;10.236;2023-11-18T15:20:48;18.35;;;11.80;;
49071;SDS011;52656;52.610;10.236;2023-11-18T15:23:15;23.60;;;12.73;;
49071;SDS011;52656;52.610;10.236;2023-11-18T15:25:46;19.58;;;12.10;;
49071;SDS011;52656;52.610;10.236;2023-11-18T15:30:39;25.17;;;12.47;;
49071;SDS011;52656;52.610;10.236;2023-11-18T15:33:08;20.85;;;12.07;;
49071;SDS011;52656;52.610;10.236;2023-11-18T15:35:34;20.98;;;12.13;;
49071;SDS011;52656;52.610;10.236;2023-11-18T15:38:04;18.88;;;11.65;;
49071;SDS011;52656;52.610;10.236;2023-11-18T15:40:33;18.63;;;12.30;;
49071;SDS011;52656;52.610;10.236;2023-11-18T15:43:01;17.30;;;11.50;;